sensor_id;sensor_type;location;lat;lon;timestamp;pressure;altitude;pressure_sealevel;temperature;humidity
44988;BME280;35735;52.226;21.254;2023-02-22T00:00:57;100117.28;;;4.43;100.00
44988;BME280;35735;52.226;21.254;2023-02-22T00:06:01;100118.78;;;4.30;100.00
44988;BME280;35735;52.226;21.254;2023-02-22T00:11:04;100115.88;;;4.18;100.00
44988;BME280;35735;52.226;21.254;2023-02-22T00:16:06;100124.56;;;4.09;100.00
44988;BME280;35735;52.226;21.254;2023-02-22T00:21:07;100133.31;;;4.02;100.00
44988;BME280;35735;52.226;21.254;2023-02-22T00:26:08;100140.41;;;4.00;100.00
44988;BME280;35735;52.226;21.254;2023-02-22T00:31:08;100146.47;;;3.91;100.00
44988;BME280;35735;52.226;21.254;2023-02-22T00:36:10;100142.78;;;3.86;100.00
44988;BME280;35735;52.226;21.254;2023-02-22T00:41:12;100152.75;;;3.95;100.00
44988;BME280;35735;52.226;21.254;2023-02-22T00:46:12;100162.66;;;4.00;100.00
44988;BME280;35735;52.226;21.254;2023-02-22T00:51:13;100156.47;;;4.01;100.00
44988;BME280;35735;52.226;21.254;2023-02-22T00:56:13;100168.88;;;3.98;100.00
44988;BME280;35735;52.226;21.254;2023-02-22T01:01:14;100168.72;;;3.92;100.00
44988;BME280;35735;52.226;21.254;2023-02-22T01:06:14;100173.81;;;3.82;100.00
44988;BME280;35735;52.226;21.254;2023-02-22T01:11:16;100181.59;;;3.71;100.00
44988;BME280;35735;52.226;21.254;2023-02-22T01:16:16;100184.97;;;3.63;100.00
44988;BME280;35735;52.226;21.254;2023-02-22T01:21:17;100185.66;;;3.56;100.00
44988;BME280;35735;52.226;21.254;2023-02-22T01:26:18;100199.06;;;3.59;100.00
44988;BME280;35735;52.226;21.254;2023-02-22T01:31:18;100205.28;;;3.58;100.00
44988;BME280;35735;52.226;21.254;2023-02-22T01:36:19;100214.03;;;3.52;100.00
44988;BME280;35735;52.226;21.254;2023-02-22T01:41:19;100221.09;;;3.50;100.00
44988;BME280;35735;52.226;21.254;2023-02-22T01:51:28;100215.50;;;3.41;100.00
44988;BME280;35735;52.226;21.254;2023-02-22T01:56:33;100212.66;;;3.33;100.00
44988;BME280;35735;52.226;21.254;2023-02-22T02:01:37;100214.25;;;3.25;100.00
44988;BME280;35735;52.226;21.254;2023-02-22T02:06:40;100225.66;;;3.19;100.00
44988;BME280;35735;52.226;21.254;2023-02-22T02:11:42;100221.94;;;3.14;100.00
44988;BME280;35735;52.226;21.254;2023-02-22T02:16:45;100231.62;;;3.10;100.00
44988;BME280;35735;52.226;21.254;2023-02-22T02:22:09;100230.69;;;3.08;100.00
44988;BME280;35735;52.226;21.254;2023-02-22T02:27:21;100237.66;;;3.03;100.00
44988;BME280;35735;52.226;21.254;2023-02-22T02:32:38;100243.09;;;3.06;100.00
44988;BME280;35735;52.226;21.254;2023-02-22T02:38:09;100253.84;;;3.09;100.00
44988;BME280;35735;52.226;21.254;2023-02-22T02:48:36;100250.94;;;3.02;100.00
44988;BME280;35735;52.226;21.254;2023-02-22T02:53:45;100254.31;;;2.94;100.00
44988;BME280;35735;52.226;21.254;2023-02-22T02:58:49;100266.84;;;2.99;100.00
44988;BME280;35735;52.226;21.254;2023-02-22T03:04:04;100271.34;;;3.00;100.00
44988;BME280;35735;52.226;21.254;2023-02-22T03:09:29;100280.22;;;3.00;100.00
44988;BME280;35735;52.226;21.254;2023-02-22T03:25:24;100281.97;;;2.98;100.00
44988;BME280;35735;52.226;21.254;2023-02-22T03:30:41;100295.38;;;3.01;100.00
44988;BME280;35735;52.226;21.254;2023-02-22T03:36:14;100302.59;;;3.05;100.00
44988;BME280;35735;52.226;21.254;2023-02-22T03:41:22;100299.03;;;3.05;100.00
44988;BME280;35735;52.226;21.254;2023-02-22T03:46:24;100307.84;;;3.02;100.00
44988;BME280;35735;52.226;21.254;2023-02-22T03:51:26;100313.12;;;3.01;100.00
44988;BME280;35735;52.226;21.254;2023-02-22T03:56:32;100315.03;;;3.05;100.00
44988;BME280;35735;52.226;21.254;2023-02-22T04:01:36;100320.09;;;2.95;100.00
44988;BME280;35735;52.226;21.254;2023-02-22T04:06:36;100319.19;;;2.95;100.00
44988;BME280;35735;52.226;21.254;2023-02-22T04:11:37;100323.72;;;2.97;100.00
44988;BME280;35735;52.226;21.254;2023-02-22T04:16:38;100341.50;;;2.99;100.00
44988;BME280;35735;52.226;21.254;2023-02-22T04:21:38;100342.31;;;2.94;100.00
44988;BME280;35735;52.226;21.254;2023-02-22T04:26:39;100351.00;;;2.89;100.00
44988;BME280;35735;52.226;21.254;2023-02-22T04:31:40;100356.34;;;2.89;100.00
44988;BME280;35735;52.226;21.254;2023-02-22T04:36:40;100363.59;;;2.93;100.00
44988;BME280;35735;52.226;21.254;2023-02-22T04:41:41;100363.28;;;2.84;100.00
44988;BME280;35735;52.226;21.254;2023-02-22T04:46:41;100364.91;;;2.78;100.00
44988;BME280;35735;52.226;21.254;2023-02-22T04:51:42;100376.94;;;2.64;100.00
44988;BME280;35735;52.226;21.254;2023-02-22T04:56:43;100369.00;;;2.67;100.00
44988;BME280;35735;52.226;21.254;2023-02-22T05:01:44;100377.00;;;2.67;100.00
44988;BME280;35735;52.226;21.254;2023-02-22T05:06:45;100382.84;;;2.55;100.00
44988;BME280;35735;52.226;21.254;2023-02-22T05:11:45;100376.72;;;2.58;100.00
44988;BME280;35735;52.226;21.254;2023-02-22T05:16:49;100377.72;;;2.62;100.00
44988;BME280;35735;52.226;21.254;2023-02-22T05:21:49;100386.66;;;2.64;100.00
44988;BME280;35735;52.226;21.254;2023-02-22T05:26:50;100393.44;;;2.52;100.00
44988;BME280;35735;52.226;21.254;2023-02-22T05:31:51;100396.22;;;2.57;100.00
44988;BME280;35735;52.226;21.254;2023-02-22T05:36:52;100405.09;;;2.56;100.00
44988;BME280;35735;52.226;21.254;2023-02-22T05:41:52;100415.53;;;2.50;100.00
44988;BME280;35735;52.226;21.254;2023-02-22T05:46:53;100417.09;;;2.43;100.00
44988;BME280;35735;52.226;21.254;2023-02-22T05:51:53;100423.22;;;2.39;100.00
44988;BME280;35735;52.226;21.254;2023-02-22T05:56:54;100424.88;;;2.37;100.00
44988;BME280;35735;52.226;21.254;2023-02-22T06:01:55;100429.53;;;2.43;100.00
44988;BME280;35735;52.226;21.254;2023-02-22T06:06:55;100429.47;;;2.41;100.00
44988;BME280;35735;52.226;21.254;2023-02-22T06:11:56;100437.47;;;2.41;100.00
44988;BME280;35735;52.226;21.254;2023-02-22T06:16:57;100444.47;;;2.37;100.00
44988;BME280;35735;52.226;21.254;2023-02-22T06:21:57;100448.81;;;2.35;100.00
44988;BME280;35735;52.226;21.254;2023-02-22T06:27:00;100459.53;;;2.37;100.00
44988;BME280;35735;52.226;21.254;2023-02-22T06:32:01;100466.78;;;2.41;100.00
44988;BME280;35735;52.226;21.254;2023-02-22T06:37:01;100471.03;;;2.36;100.00
44988;BME280;35735;52.226;21.254;2023-02-22T06:42:02;100480.78;;;2.35;100.00
44988;BME280;35735;52.226;21.254;2023-02-22T06:47:03;100480.16;;;2.43;100.00
44988;BME280;35735;52.226;21.254;2023-02-22T06:52:05;100498.34;;;2.30;100.00
44988;BME280;35735;52.226;21.254;2023-02-22T06:57:06;100502.03;;;2.34;100.00
44988;BME280;35735;52.226;21.254;2023-02-22T07:02:11;100508.97;;;2.29;100.00
44988;BME280;35735;52.226;21.254;2023-02-22T07:07:12;100511.56;;;2.27;100.00
44988;BME280;35735;52.226;21.254;2023-02-22T07:12:13;100518.06;;;2.35;100.00
44988;BME280;35735;52.226;21.254;2023-02-22T07:17:13;100522.03;;;2.21;100.00
44988;BME280;35735;52.226;21.254;2023-02-22T07:22:14;100524.34;;;2.12;100.00
44988;BME280;35735;52.226;21.254;2023-02-22T07:27:14;100524.94;;;2.03;100.00
44988;BME280;35735;52.226;21.254;2023-02-22T07:32:15;100524.22;;;2.09;100.00
44988;BME280;35735;52.226;21.254;2023-02-22T07:37:15;100534.16;;;2.13;100.00
44988;BME280;35735;52.226;21.254;2023-02-22T07:42:16;100528.78;;;2.11;100.00
44988;BME280;35735;52.226;21.254;2023-02-22T07:47:16;100524.56;;;2.18;100.00
44988;BME280;35735;52.226;21.254;2023-02-22T07:52:17;100523.94;;;2.25;100.00
44988;BME280;35735;52.226;21.254;2023-02-22T07:57:17;100526.47;;;2.22;100.00
44988;BME280;35735;52.226;21.254;2023-02-22T08:02:18;100537.59;;;2.34;100.00
44988;BME280;35735;52.226;21.254;2023-02-22T08:07:19;100532.50;;;2.42;100.00
44988;BME280;35735;52.226;21.254;2023-02-22T08:12:20;100538.28;;;2.54;100.00
44988;BME280;35735;52.226;21.254;2023-02-22T08:17:20;100530.69;;;2.67;100.00
44988;BME280;35735;52.226;21.254;2023-02-22T08:22:21;100527.22;;;2.69;100.00
44988;BME280;35735;52.226;21.254;2023-02-22T08:27:27;100535.91;;;2.64;100.00
44988;BME280;35735;52.226;21.254;2023-02-22T08:32:30;100542.72;;;2.55;100.00
44988;BME280;35735;52.226;21.254;2023-02-22T08:37:31;100546.81;;;2.44;100.00
44988;BME280;35735;52.226;21.254;2023-02-22T08:42:31;100542.50;;;2.48;100.00
44988;BME280;35735;52.226;21.254;2023-02-22T08:47:32;100545.72;;;2.65;100.00
44988;BME280;35735;52.226;21.254;2023-02-22T08:52:32;100544.28;;;2.74;100.00
44988;BME280;35735;52.226;21.254;2023-02-22T08:57:33;100557.28;;;2.91;100.00
44988;BME280;35735;52.226;21.254;2023-02-22T09:02:33;100559.59;;;3.09;100.00
44988;BME280;35735;52.226;21.254;2023-02-22T09:07:34;100562.44;;;3.13;100.00
44988;BME280;35735;52.226;21.254;2023-02-22T09:12:35;100572.44;;;3.21;100.00
44988;BME280;35735;52.226;21.254;2023-02-22T09:17:35;100578.81;;;3.24;100.00
44988;BME280;35735;52.226;21.254;2023-02-22T09:22:36;100573.38;;;3.21;100.00
44988;BME280;35735;52.226;21.254;2023-02-22T09:27:37;100575.66;;;3.10;99.97
44988;BME280;35735;52.226;21.254;2023-02-22T09:32:38;100575.78;;;3.13;99.92
44988;BME280;35735;52.226;21.254;2023-02-22T09:37:39;100583.72;;;3.12;99.71
44988;BME280;35735;52.226;21.254;2023-02-22T09:42:43;100586.22;;;3.07;99.23
44988;BME280;35735;52.226;21.254;2023-02-22T09:47:53;100586.84;;;2.99;98.62
44988;BME280;35735;52.226;21.254;2023-02-22T09:58:31;100589.44;;;2.97;99.40
44988;BME280;35735;52.226;21.254;2023-02-22T10:03:51;100591.50;;;3.04;99.34
44988;BME280;35735;52.226;21.254;2023-02-22T10:08:59;100593.37;;;3.08;99.35
44988;BME280;35735;52.226;21.254;2023-02-22T10:14:18;100605.66;;;3.03;98.69
44988;BME280;35735;52.226;21.254;2023-02-22T10:25:05;100622.66;;;2.80;98.87
44988;BME280;35735;52.226;21.254;2023-02-22T10:30:15;100624.78;;;2.64;99.21
44988;BME280;35735;52.226;21.254;2023-02-22T10:35:26;100629.66;;;2.52;99.57
44988;BME280;35735;52.226;21.254;2023-02-22T10:40:27;100631.34;;;2.24;100.00
44988;BME280;35735;52.226;21.254;2023-02-22T10:45:30;100634.53;;;2.15;100.00
44988;BME280;35735;52.226;21.254;2023-02-22T10:50:31;100634.88;;;2.00;100.00
44988;BME280;35735;52.226;21.254;2023-02-22T10:55:32;100635.81;;;1.78;99.93
44988;BME280;35735;52.226;21.254;2023-02-22T11:00:38;100639.78;;;1.65;100.00
44988;BME280;35735;52.226;21.254;2023-02-22T11:05:39;100648.47;;;1.61;100.00
44988;BME280;35735;52.226;21.254;2023-02-22T11:10:40;100641.09;;;1.54;100.00
44988;BME280;35735;52.226;21.254;2023-02-22T11:15:41;100640.16;;;1.54;99.95
44988;BME280;35735;52.226;21.254;2023-02-22T11:20:41;100636.97;;;1.62;100.00
44988;BME280;35735;52.226;21.254;2023-02-22T11:25:42;100633.31;;;1.59;99.32
44988;BME280;35735;52.226;21.254;2023-02-22T11:30:45;100638.09;;;1.46;98.61
44988;BME280;35735;52.226;21.254;2023-02-22T11:36:00;100634.84;;;1.54;99.18
44988;BME280;35735;52.226;21.254;2023-02-22T11:41:19;100638.19;;;1.48;97.94
44988;BME280;35735;52.226;21.254;2023-02-22T11:46:22;100647.72;;;1.43;97.72
44988;BME280;35735;52.226;21.254;2023-02-22T11:57:10;100653.03;;;1.43;97.82
44988;BME280;35735;52.226;21.254;2023-02-22T12:02:58;100650.87;;;1.55;97.55
44988;BME280;35735;52.226;21.254;2023-02-22T12:08:40;100648.34;;;1.58;96.38
44988;BME280;35735;52.226;21.254;2023-02-22T12:19:31;100648.72;;;1.67;96.13
44988;BME280;35735;52.226;21.254;2023-02-22T12:24:37;100648.53;;;1.85;96.35
44988;BME280;35735;52.226;21.254;2023-02-22T12:29:46;100647.72;;;1.88;95.03
44988;BME280;35735;52.226;21.254;2023-02-22T12:34:59;100649.19;;;1.80;94.24
44988;BME280;35735;52.226;21.254;2023-02-22T12:45:39;100653.00;;;1.87;94.17
44988;BME280;35735;52.226;21.254;2023-02-22T12:50:46;100645.25;;;1.93;94.43
44988;BME280;35735;52.226;21.254;2023-02-22T12:55:56;100658.38;;;2.11;94.78
44988;BME280;35735;52.226;21.254;2023-02-22T13:01:05;100668.63;;;2.24;94.50
44988;BME280;35735;52.226;21.254;2023-02-22T13:06:35;100668.28;;;2.39;94.64
44988;BME280;35735;52.226;21.254;2023-02-22T13:17:28;100669.06;;;2.36;92.66
44988;BME280;35735;52.226;21.254;2023-02-22T13:22:48;100677.47;;;2.23;92.21
44988;BME280;35735;52.226;21.254;2023-02-22T13:28:01;100694.56;;;2.06;92.25
44988;BME280;35735;52.226;21.254;2023-02-22T13:33:23;100705.37;;;2.10;93.00
44988;BME280;35735;52.226;21.254;2023-02-22T13:54:58;100695.66;;;2.11;92.04
44988;BME280;35735;52.226;21.254;2023-02-22T14:05:35;100708.69;;;1.82;91.88
44988;BME280;35735;52.226;21.254;2023-02-22T14:10:48;100709.91;;;1.67;91.61
44988;BME280;35735;52.226;21.254;2023-02-22T14:21:07;100710.22;;;1.75;92.33
44988;BME280;35735;52.226;21.254;2023-02-22T14:26:27;100721.25;;;1.84;92.58
44988;BME280;35735;52.226;21.254;2023-02-22T14:31:32;100724.16;;;1.91;92.51
44988;BME280;35735;52.226;21.254;2023-02-22T14:37:05;100724.31;;;1.95;92.34
44988;BME280;35735;52.226;21.254;2023-02-22T14:42:16;100729.16;;;1.83;92.77
44988;BME280;35735;52.226;21.254;2023-02-22T14:47:44;100722.38;;;1.91;92.57
44988;BME280;35735;52.226;21.254;2023-02-22T14:58:52;100729.03;;;1.80;92.12
44988;BME280;35735;52.226;21.254;2023-02-22T15:04:16;100732.56;;;1.79;92.24
44988;BME280;35735;52.226;21.254;2023-02-22T15:09:25;100741.13;;;1.72;91.77
44988;BME280;35735;52.226;21.254;2023-02-22T15:14:30;100739.66;;;1.57;91.36
44988;BME280;35735;52.226;21.254;2023-02-22T15:19:36;100741.47;;;1.58;91.98
44988;BME280;35735;52.226;21.254;2023-02-22T15:24:38;100742.56;;;1.63;92.04
44988;BME280;35735;52.226;21.254;2023-02-22T15:29:41;100752.69;;;1.51;91.35
44988;BME280;35735;52.226;21.254;2023-02-22T15:34:42;100750.50;;;1.41;91.39
44988;BME280;35735;52.226;21.254;2023-02-22T15:39:43;100755.41;;;1.32;91.33
44988;BME280;35735;52.226;21.254;2023-02-22T15:44:49;100758.81;;;1.27;91.00
44988;BME280;35735;52.226;21.254;2023-02-22T15:50:14;100751.53;;;1.23;91.07
44988;BME280;35735;52.226;21.254;2023-02-22T15:55:26;100766.56;;;1.23;90.78
44988;BME280;35735;52.226;21.254;2023-02-22T16:00:34;100765.47;;;1.18;91.12
44988;BME280;35735;52.226;21.254;2023-02-22T16:05:50;100766.72;;;1.26;91.33
44988;BME280;35735;52.226;21.254;2023-02-22T16:11:00;100770.75;;;1.37;91.64
44988;BME280;35735;52.226;21.254;2023-02-22T16:16:05;100774.50;;;1.42;91.30
44988;BME280;35735;52.226;21.254;2023-02-22T16:21:21;100776.97;;;1.38;90.64
44988;BME280;35735;52.226;21.254;2023-02-22T16:31:39;100784.28;;;1.22;90.65
44988;BME280;35735;52.226;21.254;2023-02-22T16:36:42;100787.50;;;1.15;90.80
44988;BME280;35735;52.226;21.254;2023-02-22T16:41:44;100799.53;;;1.26;91.46
44988;BME280;35735;52.226;21.254;2023-02-22T16:46:44;100794.22;;;1.26;91.00
44988;BME280;35735;52.226;21.254;2023-02-22T16:51:50;100808.38;;;1.25;91.36
44988;BME280;35735;52.226;21.254;2023-02-22T16:56:56;100809.97;;;1.22;91.22
44988;BME280;35735;52.226;21.254;2023-02-22T17:01:57;100806.25;;;1.18;91.39
44988;BME280;35735;52.226;21.254;2023-02-22T17:06:58;100810.31;;;1.29;91.74
44988;BME280;35735;52.226;21.254;2023-02-22T17:11:59;100812.31;;;1.35;92.16
44988;BME280;35735;52.226;21.254;2023-02-22T17:16:59;100814.22;;;1.38;92.27
44988;BME280;35735;52.226;21.254;2023-02-22T17:22:00;100812.59;;;1.41;92.43
44988;BME280;35735;52.226;21.254;2023-02-22T17:27:00;100817.25;;;1.47;92.19
44988;BME280;35735;52.226;21.254;2023-02-22T17:32:01;100814.47;;;1.44;91.69
44988;BME280;35735;52.226;21.254;2023-02-22T17:37:02;100812.25;;;1.34;91.74
44988;BME280;35735;52.226;21.254;2023-02-22T17:42:03;100816.94;;;1.39;92.27
44988;BME280;35735;52.226;21.254;2023-02-22T17:47:04;100816.81;;;1.36;91.99
44988;BME280;35735;52.226;21.254;2023-02-22T17:52:04;100813.31;;;1.37;92.21
44988;BME280;35735;52.226;21.254;2023-02-22T17:57:05;100817.91;;;1.41;92.13
44988;BME280;35735;52.226;21.254;2023-02-22T18:02:05;100811.41;;;1.35;92.16
44988;BME280;35735;52.226;21.254;2023-02-22T18:07:06;100821.09;;;1.33;91.89
44988;BME280;35735;52.226;21.254;2023-02-22T18:12:07;100823.41;;;1.25;91.93
44988;BME280;35735;52.226;21.254;2023-02-22T18:17:07;100827.28;;;1.12;92.07
44988;BME280;35735;52.226;21.254;2023-02-22T18:22:08;100823.47;;;1.07;91.98
44988;BME280;35735;52.226;21.254;2023-02-22T18:27:08;100824.06;;;1.00;92.44
44988;BME280;35735;52.226;21.254;2023-02-22T18:32:09;100830.97;;;0.96;92.34
44988;BME280;35735;52.226;21.254;2023-02-22T18:37:09;100832.81;;;0.97;92.49
44988;BME280;35735;52.226;21.254;2023-02-22T18:42:10;100842.66;;;1.00;92.58
44988;BME280;35735;52.226;21.254;2023-02-22T18:47:11;100847.00;;;0.98;92.78
44988;BME280;35735;52.226;21.254;2023-02-22T18:52:11;100847.69;;;0.93;92.84
44988;BME280;35735;52.226;21.254;2023-02-22T18:57:12;100839.78;;;0.95;92.74
44988;BME280;35735;52.226;21.254;2023-02-22T19:02:14;100852.09;;;0.93;93.15
44988;BME280;35735;52.226;21.254;2023-02-22T19:07:15;100834.75;;;1.01;93.58
44988;BME280;35735;52.226;21.254;2023-02-22T19:12:17;100835.56;;;0.99;93.15
44988;BME280;35735;52.226;21.254;2023-02-22T19:17:18;100841.97;;;1.04;93.24
44988;BME280;35735;52.226;21.254;2023-02-22T19:22:18;100847.28;;;1.04;92.74
44988;BME280;35735;52.226;21.254;2023-02-22T19:27:19;100836.38;;;0.98;92.87
44988;BME280;35735;52.226;21.254;2023-02-22T19:32:20;100833.66;;;0.96;93.22
44988;BME280;35735;52.226;21.254;2023-02-22T19:37:20;100835.19;;;0.91;92.83
44988;BME280;35735;52.226;21.254;2023-02-22T19:42:21;100830.09;;;0.96;93.66
44988;BME280;35735;52.226;21.254;2023-02-22T19:47:22;100825.44;;;0.91;92.79
44988;BME280;35735;52.226;21.254;2023-02-22T19:52:22;100839.03;;;0.78;92.73
44988;BME280;35735;52.226;21.254;2023-02-22T19:57:23;100845.72;;;0.70;92.30
44988;BME280;35735;52.226;21.254;2023-02-22T20:02:23;100852.31;;;0.59;91.39
44988;BME280;35735;52.226;21.254;2023-02-22T20:07:24;100856.19;;;0.47;91.74
44988;BME280;35735;52.226;21.254;2023-02-22T20:12:24;100857.63;;;0.59;92.66
44988;BME280;35735;52.226;21.254;2023-02-22T20:17:26;100854.19;;;0.61;91.68
44988;BME280;35735;52.226;21.254;2023-02-22T20:22:26;100862.62;;;0.52;92.02
44988;BME280;35735;52.226;21.254;2023-02-22T20:27:27;100855.34;;;0.48;92.16
44988;BME280;35735;52.226;21.254;2023-02-22T20:32:28;100858.94;;;0.31;91.29
44988;BME280;35735;52.226;21.254;2023-02-22T20:37:29;100857.19;;;0.31;91.19
44988;BME280;35735;52.226;21.254;2023-02-22T20:42:30;100860.22;;;0.39;91.26
44988;BME280;35735;52.226;21.254;2023-02-22T20:47:31;100856.19;;;0.47;91.50
44988;BME280;35735;52.226;21.254;2023-02-22T20:52:31;100863.87;;;0.41;91.42
44988;BME280;35735;52.226;21.254;2023-02-22T20:57:32;100864.75;;;0.42;90.91
44988;BME280;35735;52.226;21.254;2023-02-22T21:02:33;100874.06;;;0.32;90.68
44988;BME280;35735;52.226;21.254;2023-02-22T21:07:33;100868.59;;;0.29;89.70
44988;BME280;35735;52.226;21.254;2023-02-22T21:12:34;100869.81;;;0.17;89.79
44988;BME280;35735;52.226;21.254;2023-02-22T21:17:35;100868.69;;;0.12;89.74
44988;BME280;35735;52.226;21.254;2023-02-22T21:22:35;100862.91;;;0.21;90.34
44988;BME280;35735;52.226;21.254;2023-02-22T21:27:36;100865.78;;;0.26;90.39
44988;BME280;35735;52.226;21.254;2023-02-22T21:32:36;100866.22;;;0.35;90.59
44988;BME280;35735;52.226;21.254;2023-02-22T21:37:37;100860.91;;;0.35;89.89
44988;BME280;35735;52.226;21.254;2023-02-22T21:42:37;100865.00;;;0.28;89.22
44988;BME280;35735;52.226;21.254;2023-02-22T21:47:38;100866.69;;;0.08;88.67
44988;BME280;35735;52.226;21.254;2023-02-22T21:52:39;100865.28;;;-0.03;88.60
44988;BME280;35735;52.226;21.254;2023-02-22T21:57:40;100877.47;;;-0.07;88.88
44988;BME280;35735;52.226;21.254;2023-02-22T22:02:41;100873.06;;;-0.06;89.04
44988;BME280;35735;52.226;21.254;2023-02-22T22:07:45;100871.94;;;-0.11;88.82
44988;BME280;35735;52.226;21.254;2023-02-22T22:12:45;100875.06;;;-0.20;88.79
44988;BME280;35735;52.226;21.254;2023-02-22T22:17:46;100875.78;;;-0.23;89.06
44988;BME280;35735;52.226;21.254;2023-02-22T22:22:46;100863.94;;;-0.29;88.28
44988;BME280;35735;52.226;21.254;2023-02-22T22:27:47;100875.19;;;-0.35;88.60
44988;BME280;35735;52.226;21.254;2023-02-22T22:32:47;100873.00;;;-0.42;88.63
44988;BME280;35735;52.226;21.254;2023-02-22T22:37:48;100878.31;;;-0.42;89.14
44988;BME280;35735;52.226;21.254;2023-02-22T22:42:49;100873.25;;;-0.38;89.37
44988;BME280;35735;52.226;21.254;2023-02-22T22:47:49;100882.59;;;-0.28;89.51
44988;BME280;35735;52.226;21.254;2023-02-22T22:52:50;100876.16;;;-0.33;89.04
44988;BME280;35735;52.226;21.254;2023-02-22T22:57:50;100872.72;;;-0.48;88.53
44988;BME280;35735;52.226;21.254;2023-02-22T23:02:51;100876.19;;;-0.49;89.29
44988;BME280;35735;52.226;21.254;2023-02-22T23:07:53;100875.47;;;-0.47;89.12
44988;BME280;35735;52.226;21.254;2023-02-22T23:12:54;100879.84;;;-0.47;88.93
44988;BME280;35735;52.226;21.254;2023-02-22T23:17:55;100878.84;;;-0.49;88.67
44988;BME280;35735;52.226;21.254;2023-02-22T23:22:55;100876.03;;;-0.52;88.47
44988;BME280;35735;52.226;21.254;2023-02-22T23:27:56;100881.34;;;-0.69;87.82
44988;BME280;35735;52.226;21.254;2023-02-22T23:32:57;100883.38;;;-0.81;88.05
44988;BME280;35735;52.226;21.254;2023-02-22T23:37:57;100881.72;;;-0.79;88.51
44988;BME280;35735;52.226;21.254;2023-02-22T23:42:58;100878.06;;;-0.81;88.27
44988;BME280;35735;52.226;21.254;2023-02-22T23:47:58;100870.84;;;-0.84;88.33
44988;BME280;35735;52.226;21.254;2023-02-22T23:53:00;100865.62;;;-0.82;88.81
44988;BME280;35735;52.226;21.254;2023-02-22T23:58:00;100858.09;;;-0.75;88.83
